sensor_id;sensor_type;location;lat;lon;timestamp;P1;durP1;ratioP1;P2;durP2;ratioP2
55288;SDS011;41154;45.394;5.734;2023-04-24T00:01:00;0.95;;;0.63;;
55288;SDS011;41154;45.394;5.734;2023-04-24T00:03:26;2.25;;;1.10;;
55288;SDS011;41154;45.394;5.734;2023-04-24T00:05:53;1.42;;;0.93;;
55288;SDS011;41154;45.394;5.734;2023-04-24T00:08:19;0.40;;;0.40;;
55288;SDS011;41154;45.394;5.734;2023-04-24T00:10:45;1.75;;;0.65;;
55288;SDS011;41154;45.394;5.734;2023-04-24T00:13:11;1.90;;;0.60;;
55288;SDS011;41154;45.394;5.734;2023-04-24T00:15:36;3.58;;;0.57;;
55288;SDS011;41154;45.394;5.734;2023-04-24T00:18:02;1.45;;;0.52;;
55288;SDS011;41154;45.394;5.734;2023-04-24T00:20:28;3.47;;;0.95;;
55288;SDS011;41154;45.394;5.734;2023-04-24T00:23:00;1.00;;;0.80;;
55288;SDS011;41154;45.394;5.734;2023-04-24T00:25:26;1.90;;;0.85;;
55288;SDS011;41154;45.394;5.734;2023-04-24T00:27:52;1.50;;;0.85;;
55288;SDS011;41154;45.394;5.734;2023-04-24T00:30:18;1.65;;;0.80;;
55288;SDS011;41154;45.394;5.734;2023-04-24T00:32:43;1.05;;;0.80;;
55288;SDS011;41154;45.394;5.734;2023-04-24T00:35:09;1.90;;;0.60;;
55288;SDS011;41154;45.394;5.734;2023-04-24T00:37:35;1.45;;;1.00;;
55288;SDS011;41154;45.394;5.734;2023-04-24T00:40:01;3.78;;;0.90;;
55288;SDS011;41154;45.394;5.734;2023-04-24T00:42:28;3.72;;;1.05;;
55288;SDS011;41154;45.394;5.734;2023-04-24T00:44:54;1.38;;;0.50;;
55288;SDS011;41154;45.394;5.734;2023-04-24T00:47:21;1.02;;;0.70;;
55288;SDS011;41154;45.394;5.734;2023-04-24T00:49:48;6.82;;;0.63;;
55288;SDS011;41154;45.394;5.734;2023-04-24T00:52:13;1.33;;;0.60;;
55288;SDS011;41154;45.394;5.734;2023-04-24T00:54:43;1.15;;;0.70;;
55288;SDS011;41154;45.394;5.734;2023-04-24T00:57:10;0.88;;;0.57;;
55288;SDS011;41154;45.394;5.734;2023-04-24T00:59:36;2.05;;;0.90;;
55288;SDS011;41154;45.394;5.734;2023-04-24T01:02:02;1.35;;;0.70;;
55288;SDS011;41154;45.394;5.734;2023-04-24T01:04:28;3.47;;;0.98;;
55288;SDS011;41154;45.394;5.734;2023-04-24T01:06:54;1.50;;;0.77;;
55288;SDS011;41154;45.394;5.734;2023-04-24T01:09:21;2.70;;;0.93;;
55288;SDS011;41154;45.394;5.734;2023-04-24T01:11:51;2.00;;;0.85;;
55288;SDS011;41154;45.394;5.734;2023-04-24T01:14:17;2.25;;;0.90;;
55288;SDS011;41154;45.394;5.734;2023-04-24T01:16:42;2.17;;;0.70;;
55288;SDS011;41154;45.394;5.734;2023-04-24T01:19:08;1.55;;;0.77;;
55288;SDS011;41154;45.394;5.734;2023-04-24T01:21:36;0.82;;;0.57;;
55288;SDS011;41154;45.394;5.734;2023-04-24T01:24:04;1.00;;;0.65;;
55288;SDS011;41154;45.394;5.734;2023-04-24T01:26:30;0.98;;;0.60;;
55288;SDS011;41154;45.394;5.734;2023-04-24T01:28:56;2.25;;;0.47;;
55288;SDS011;41154;45.394;5.734;2023-04-24T01:31:22;2.65;;;0.77;;
55288;SDS011;41154;45.394;5.734;2023-04-24T01:33:49;1.02;;;0.63;;
55288;SDS011;41154;45.394;5.734;2023-04-24T01:36:16;1.55;;;0.60;;
55288;SDS011;41154;45.394;5.734;2023-04-24T01:38:42;2.28;;;0.75;;
55288;SDS011;41154;45.394;5.734;2023-04-24T01:41:09;0.55;;;0.50;;
55288;SDS011;41154;45.394;5.734;2023-04-24T01:43:35;1.10;;;0.50;;
55288;SDS011;41154;45.394;5.734;2023-04-24T01:46:01;0.77;;;0.60;;
55288;SDS011;41154;45.394;5.734;2023-04-24T01:48:27;0.63;;;0.60;;
55288;SDS011;41154;45.394;5.734;2023-04-24T01:50:53;0.75;;;0.65;;
55288;SDS011;41154;45.394;5.734;2023-04-24T01:53:19;0.73;;;0.50;;
55288;SDS011;41154;45.394;5.734;2023-04-24T01:55:45;0.90;;;0.70;;
55288;SDS011;41154;45.394;5.734;2023-04-24T01:58:12;1.50;;;0.95;;
55288;SDS011;41154;45.394;5.734;2023-04-24T02:00:38;2.28;;;1.00;;
55288;SDS011;41154;45.394;5.734;2023-04-24T02:03:03;2.80;;;1.15;;
55288;SDS011;41154;45.394;5.734;2023-04-24T02:05:29;1.17;;;1.00;;
55288;SDS011;41154;45.394;5.734;2023-04-24T02:07:55;0.90;;;0.90;;
55288;SDS011;41154;45.394;5.734;2023-04-24T02:10:20;2.97;;;0.90;;
55288;SDS011;41154;45.394;5.734;2023-04-24T02:12:46;0.75;;;0.75;;
55288;SDS011;41154;45.394;5.734;2023-04-24T02:15:12;0.73;;;0.70;;
55288;SDS011;41154;45.394;5.734;2023-04-24T02:17:37;2.47;;;1.10;;
55288;SDS011;41154;45.394;5.734;2023-04-24T02:20:06;1.00;;;0.88;;
55288;SDS011;41154;45.394;5.734;2023-04-24T02:22:32;1.15;;;0.90;;
55288;SDS011;41154;45.394;5.734;2023-04-24T02:25:00;2.03;;;0.98;;
55288;SDS011;41154;45.394;5.734;2023-04-24T02:27:26;1.35;;;1.00;;
55288;SDS011;41154;45.394;5.734;2023-04-24T02:29:52;1.33;;;0.75;;
55288;SDS011;41154;45.394;5.734;2023-04-24T02:32:18;0.98;;;0.88;;
55288;SDS011;41154;45.394;5.734;2023-04-24T02:34:44;1.42;;;1.00;;
55288;SDS011;41154;45.394;5.734;2023-04-24T02:37:11;1.42;;;1.08;;
55288;SDS011;41154;45.394;5.734;2023-04-24T02:39:37;2.03;;;1.10;;
55288;SDS011;41154;45.394;5.734;2023-04-24T02:42:02;7.75;;;1.98;;
55288;SDS011;41154;45.394;5.734;2023-04-24T02:44:29;4.75;;;1.83;;
55288;SDS011;41154;45.394;5.734;2023-04-24T02:46:55;4.10;;;1.45;;
55288;SDS011;41154;45.394;5.734;2023-04-24T02:49:22;1.15;;;0.85;;
55288;SDS011;41154;45.394;5.734;2023-04-24T02:51:47;2.60;;;0.88;;
55288;SDS011;41154;45.394;5.734;2023-04-24T02:54:13;1.73;;;0.90;;
55288;SDS011;41154;45.394;5.734;2023-04-24T02:56:39;1.85;;;0.85;;
55288;SDS011;41154;45.394;5.734;2023-04-24T02:59:06;1.75;;;0.88;;
55288;SDS011;41154;45.394;5.734;2023-04-24T03:01:32;1.63;;;1.00;;
55288;SDS011;41154;45.394;5.734;2023-04-24T03:03:58;3.58;;;1.48;;
55288;SDS011;41154;45.394;5.734;2023-04-24T03:06:24;5.32;;;1.60;;
55288;SDS011;41154;45.394;5.734;2023-04-24T03:08:52;2.33;;;1.42;;
55288;SDS011;41154;45.394;5.734;2023-04-24T03:11:18;2.28;;;1.10;;
55288;SDS011;41154;45.394;5.734;2023-04-24T03:13:44;1.75;;;1.00;;
55288;SDS011;41154;45.394;5.734;2023-04-24T03:16:10;1.98;;;0.98;;
55288;SDS011;41154;45.394;5.734;2023-04-24T03:18:35;1.17;;;0.98;;
55288;SDS011;41154;45.394;5.734;2023-04-24T03:21:02;2.00;;;1.10;;
55288;SDS011;41154;45.394;5.734;2023-04-24T03:23:29;1.60;;;1.10;;
55288;SDS011;41154;45.394;5.734;2023-04-24T03:25:55;2.70;;;1.10;;
55288;SDS011;41154;45.394;5.734;2023-04-24T03:28:21;2.17;;;1.10;;
55288;SDS011;41154;45.394;5.734;2023-04-24T03:33:23;2.50;;;1.00;;
55288;SDS011;41154;45.394;5.734;2023-04-24T03:35:57;5.22;;;1.10;;
55288;SDS011;41154;45.394;5.734;2023-04-24T03:38:23;3.33;;;1.58;;
55288;SDS011;41154;45.394;5.734;2023-04-24T03:41:02;2.75;;;1.30;;
55288;SDS011;41154;45.394;5.734;2023-04-24T03:43:54;2.38;;;1.10;;
55288;SDS011;41154;45.394;5.734;2023-04-24T03:46:19;2.35;;;1.20;;
55288;SDS011;41154;45.394;5.734;2023-04-24T03:48:52;2.28;;;1.38;;
55288;SDS011;41154;45.394;5.734;2023-04-24T03:51:21;2.40;;;1.40;;
55288;SDS011;41154;45.394;5.734;2023-04-24T03:53:50;2.15;;;1.05;;
55288;SDS011;41154;45.394;5.734;2023-04-24T03:56:19;3.63;;;1.58;;
55288;SDS011;41154;45.394;5.734;2023-04-24T03:58:45;2.20;;;1.55;;
55288;SDS011;41154;45.394;5.734;2023-04-24T04:01:11;2.45;;;1.58;;
55288;SDS011;41154;45.394;5.734;2023-04-24T04:03:37;2.03;;;1.27;;
55288;SDS011;41154;45.394;5.734;2023-04-24T04:06:03;2.42;;;1.30;;
55288;SDS011;41154;45.394;5.734;2023-04-24T04:08:29;1.98;;;1.42;;
55288;SDS011;41154;45.394;5.734;2023-04-24T04:10:57;2.10;;;1.48;;
55288;SDS011;41154;45.394;5.734;2023-04-24T04:13:22;4.43;;;1.48;;
55288;SDS011;41154;45.394;5.734;2023-04-24T04:15:48;1.70;;;1.20;;
55288;SDS011;41154;45.394;5.734;2023-04-24T04:18:14;1.42;;;0.90;;
55288;SDS011;41154;45.394;5.734;2023-04-24T04:20:41;1.50;;;1.30;;
55288;SDS011;41154;45.394;5.734;2023-04-24T04:23:08;1.10;;;1.00;;
55288;SDS011;41154;45.394;5.734;2023-04-24T04:26:03;3.70;;;1.23;;
55288;SDS011;41154;45.394;5.734;2023-04-24T04:28:42;1.63;;;0.95;;
55288;SDS011;41154;45.394;5.734;2023-04-24T04:31:10;2.90;;;1.67;;
55288;SDS011;41154;45.394;5.734;2023-04-24T04:33:36;2.20;;;1.38;;
55288;SDS011;41154;45.394;5.734;2023-04-24T04:36:05;1.63;;;1.13;;
55288;SDS011;41154;45.394;5.734;2023-04-24T04:38:35;2.38;;;1.45;;
55288;SDS011;41154;45.394;5.734;2023-04-24T04:41:13;1.35;;;1.23;;
55288;SDS011;41154;45.394;5.734;2023-04-24T04:43:39;1.90;;;1.33;;
55288;SDS011;41154;45.394;5.734;2023-04-24T04:46:06;1.92;;;1.30;;
55288;SDS011;41154;45.394;5.734;2023-04-24T04:48:55;2.47;;;1.30;;
55288;SDS011;41154;45.394;5.734;2023-04-24T04:51:22;1.80;;;1.33;;
55288;SDS011;41154;45.394;5.734;2023-04-24T04:53:48;5.70;;;1.40;;
55288;SDS011;41154;45.394;5.734;2023-04-24T04:56:14;3.65;;;1.83;;
55288;SDS011;41154;45.394;5.734;2023-04-24T04:58:44;5.97;;;1.40;;
55288;SDS011;41154;45.394;5.734;2023-04-24T05:01:13;1.95;;;1.30;;
55288;SDS011;41154;45.394;5.734;2023-04-24T05:03:41;5.10;;;1.60;;
55288;SDS011;41154;45.394;5.734;2023-04-24T05:06:09;7.55;;;1.52;;
55288;SDS011;41154;45.394;5.734;2023-04-24T05:08:38;2.33;;;1.58;;
55288;SDS011;41154;45.394;5.734;2023-04-24T05:11:07;2.13;;;1.58;;
55288;SDS011;41154;45.394;5.734;2023-04-24T05:13:33;2.13;;;1.50;;
55288;SDS011;41154;45.394;5.734;2023-04-24T05:16:01;2.33;;;1.60;;
55288;SDS011;41154;45.394;5.734;2023-04-24T05:18:28;3.33;;;1.90;;
55288;SDS011;41154;45.394;5.734;2023-04-24T05:20:54;2.35;;;1.33;;
55288;SDS011;41154;45.394;5.734;2023-04-24T05:23:21;1.67;;;1.55;;
55288;SDS011;41154;45.394;5.734;2023-04-24T05:25:50;2.58;;;1.30;;
55288;SDS011;41154;45.394;5.734;2023-04-24T05:28:16;1.92;;;1.20;;
55288;SDS011;41154;45.394;5.734;2023-04-24T05:30:46;2.58;;;1.02;;
55288;SDS011;41154;45.394;5.734;2023-04-24T05:33:14;1.80;;;1.05;;
55288;SDS011;41154;45.394;5.734;2023-04-24T05:35:40;4.97;;;0.88;;
55288;SDS011;41154;45.394;5.734;2023-04-24T05:38:11;3.30;;;0.90;;
55288;SDS011;41154;45.394;5.734;2023-04-24T05:40:38;0.75;;;0.68;;
55288;SDS011;41154;45.394;5.734;2023-04-24T05:43:04;1.73;;;0.90;;
55288;SDS011;41154;45.394;5.734;2023-04-24T05:45:30;2.00;;;1.00;;
55288;SDS011;41154;45.394;5.734;2023-04-24T05:47:57;1.50;;;1.20;;
55288;SDS011;41154;45.394;5.734;2023-04-24T05:50:22;1.33;;;0.65;;
55288;SDS011;41154;45.394;5.734;2023-04-24T05:52:48;3.75;;;1.73;;
55288;SDS011;41154;45.394;5.734;2023-04-24T05:55:24;4.20;;;2.42;;
55288;SDS011;41154;45.394;5.734;2023-04-24T05:57:51;2.35;;;1.40;;
55288;SDS011;41154;45.394;5.734;2023-04-24T06:00:17;1.15;;;1.00;;
55288;SDS011;41154;45.394;5.734;2023-04-24T06:02:51;1.30;;;1.05;;
55288;SDS011;41154;45.394;5.734;2023-04-24T06:05:19;1.58;;;1.10;;
55288;SDS011;41154;45.394;5.734;2023-04-24T06:07:45;3.50;;;1.23;;
55288;SDS011;41154;45.394;5.734;2023-04-24T06:10:11;2.42;;;1.20;;
55288;SDS011;41154;45.394;5.734;2023-04-24T06:12:40;8.20;;;1.33;;
55288;SDS011;41154;45.394;5.734;2023-04-24T06:15:12;3.10;;;1.10;;
55288;SDS011;41154;45.394;5.734;2023-04-24T06:18:13;4.05;;;0.88;;
55288;SDS011;41154;45.394;5.734;2023-04-24T06:20:40;2.03;;;1.00;;
55288;SDS011;41154;45.394;5.734;2023-04-24T06:23:08;1.83;;;1.10;;
55288;SDS011;41154;45.394;5.734;2023-04-24T06:25:35;3.03;;;1.25;;
55288;SDS011;41154;45.394;5.734;2023-04-24T06:28:01;3.28;;;0.95;;
55288;SDS011;41154;45.394;5.734;2023-04-24T06:30:29;2.47;;;1.20;;
55288;SDS011;41154;45.394;5.734;2023-04-24T06:32:54;4.40;;;1.30;;
55288;SDS011;41154;45.394;5.734;2023-04-24T06:35:20;2.33;;;1.33;;
55288;SDS011;41154;45.394;5.734;2023-04-24T06:37:46;1.90;;;1.20;;
55288;SDS011;41154;45.394;5.734;2023-04-24T06:40:12;2.28;;;0.90;;
55288;SDS011;41154;45.394;5.734;2023-04-24T06:42:38;1.35;;;1.08;;
55288;SDS011;41154;45.394;5.734;2023-04-24T06:45:07;2.08;;;0.80;;
55288;SDS011;41154;45.394;5.734;2023-04-24T06:47:33;1.48;;;0.75;;
55288;SDS011;41154;45.394;5.734;2023-04-24T06:49:58;2.92;;;0.82;;
55288;SDS011;41154;45.394;5.734;2023-04-24T06:52:24;0.90;;;0.70;;
55288;SDS011;41154;45.394;5.734;2023-04-24T06:54:50;1.20;;;1.00;;
55288;SDS011;41154;45.394;5.734;2023-04-24T06:57:16;1.20;;;0.68;;
55288;SDS011;41154;45.394;5.734;2023-04-24T06:59:42;0.93;;;0.80;;
55288;SDS011;41154;45.394;5.734;2023-04-24T07:02:08;2.67;;;0.82;;
55288;SDS011;41154;45.394;5.734;2023-04-24T07:04:34;1.52;;;0.90;;
55288;SDS011;41154;45.394;5.734;2023-04-24T07:07:00;1.60;;;1.00;;
55288;SDS011;41154;45.394;5.734;2023-04-24T07:09:26;0.57;;;0.55;;
55288;SDS011;41154;45.394;5.734;2023-04-24T07:11:52;0.98;;;0.65;;
55288;SDS011;41154;45.394;5.734;2023-04-24T07:14:18;3.75;;;1.92;;
55288;SDS011;41154;45.394;5.734;2023-04-24T07:16:46;5.93;;;2.28;;
55288;SDS011;41154;45.394;5.734;2023-04-24T07:19:13;5.47;;;2.50;;
55288;SDS011;41154;45.394;5.734;2023-04-24T07:21:39;6.10;;;2.13;;
55288;SDS011;41154;45.394;5.734;2023-04-24T07:24:04;5.07;;;1.80;;
55288;SDS011;41154;45.394;5.734;2023-04-24T07:26:31;4.63;;;1.33;;
55288;SDS011;41154;45.394;5.734;2023-04-24T07:28:56;2.97;;;0.90;;
55288;SDS011;41154;45.394;5.734;2023-04-24T07:31:22;0.93;;;0.70;;
55288;SDS011;41154;45.394;5.734;2023-04-24T07:33:48;2.33;;;0.85;;
55288;SDS011;41154;45.394;5.734;2023-04-24T07:36:14;1.23;;;0.90;;
55288;SDS011;41154;45.394;5.734;2023-04-24T07:38:46;4.10;;;1.27;;
55288;SDS011;41154;45.394;5.734;2023-04-24T07:41:12;3.65;;;1.15;;
55288;SDS011;41154;45.394;5.734;2023-04-24T07:43:39;2.25;;;0.85;;
55288;SDS011;41154;45.394;5.734;2023-04-24T07:46:05;2.00;;;1.10;;
55288;SDS011;41154;45.394;5.734;2023-04-24T07:48:31;2.88;;;0.93;;
55288;SDS011;41154;45.394;5.734;2023-04-24T07:50:57;1.55;;;1.40;;
55288;SDS011;41154;45.394;5.734;2023-04-24T07:53:23;1.77;;;0.90;;
55288;SDS011;41154;45.394;5.734;2023-04-24T07:55:49;1.60;;;1.13;;
55288;SDS011;41154;45.394;5.734;2023-04-24T07:58:15;1.70;;;0.90;;
55288;SDS011;41154;45.394;5.734;2023-04-24T08:00:41;2.35;;;1.00;;
55288;SDS011;41154;45.394;5.734;2023-04-24T08:03:06;2.20;;;1.02;;
55288;SDS011;41154;45.394;5.734;2023-04-24T08:05:32;1.38;;;0.80;;
55288;SDS011;41154;45.394;5.734;2023-04-24T08:07:58;1.52;;;0.95;;
55288;SDS011;41154;45.394;5.734;2023-04-24T08:10:24;1.88;;;1.20;;
55288;SDS011;41154;45.394;5.734;2023-04-24T08:12:50;3.30;;;0.90;;
55288;SDS011;41154;45.394;5.734;2023-04-24T08:15:16;1.30;;;0.75;;
55288;SDS011;41154;45.394;5.734;2023-04-24T08:17:42;1.25;;;0.90;;
55288;SDS011;41154;45.394;5.734;2023-04-24T08:20:08;2.63;;;0.90;;
55288;SDS011;41154;45.394;5.734;2023-04-24T08:22:41;1.33;;;0.80;;
55288;SDS011;41154;45.394;5.734;2023-04-24T08:25:08;3.08;;;1.00;;
55288;SDS011;41154;45.394;5.734;2023-04-24T08:27:35;3.08;;;1.52;;
55288;SDS011;41154;45.394;5.734;2023-04-24T08:30:02;1.92;;;1.15;;
55288;SDS011;41154;45.394;5.734;2023-04-24T08:32:29;2.15;;;1.20;;
55288;SDS011;41154;45.394;5.734;2023-04-24T08:34:55;1.67;;;1.02;;
55288;SDS011;41154;45.394;5.734;2023-04-24T08:37:25;3.78;;;1.13;;
55288;SDS011;41154;45.394;5.734;2023-04-24T08:39:51;4.40;;;1.15;;
55288;SDS011;41154;45.394;5.734;2023-04-24T08:42:18;2.10;;;1.10;;
55288;SDS011;41154;45.394;5.734;2023-04-24T08:44:45;2.67;;;1.00;;
55288;SDS011;41154;45.394;5.734;2023-04-24T08:47:11;1.92;;;1.20;;
55288;SDS011;41154;45.394;5.734;2023-04-24T08:49:37;2.05;;;1.05;;
55288;SDS011;41154;45.394;5.734;2023-04-24T08:52:06;1.92;;;1.23;;
55288;SDS011;41154;45.394;5.734;2023-04-24T08:54:36;3.50;;;1.17;;
55288;SDS011;41154;45.394;5.734;2023-04-24T08:57:02;5.65;;;1.10;;
55288;SDS011;41154;45.394;5.734;2023-04-24T08:59:29;1.35;;;0.82;;
55288;SDS011;41154;45.394;5.734;2023-04-24T09:01:56;2.78;;;0.90;;
55288;SDS011;41154;45.394;5.734;2023-04-24T09:04:22;2.25;;;1.20;;
55288;SDS011;41154;45.394;5.734;2023-04-24T09:06:55;1.48;;;1.00;;
55288;SDS011;41154;45.394;5.734;2023-04-24T09:09:22;2.15;;;1.25;;
55288;SDS011;41154;45.394;5.734;2023-04-24T09:11:52;2.20;;;1.00;;
55288;SDS011;41154;45.394;5.734;2023-04-24T09:14:20;1.02;;;0.90;;
55288;SDS011;41154;45.394;5.734;2023-04-24T09:16:48;3.05;;;1.17;;
55288;SDS011;41154;45.394;5.734;2023-04-24T09:19:13;1.95;;;0.93;;
55288;SDS011;41154;45.394;5.734;2023-04-24T09:21:39;2.67;;;1.40;;
55288;SDS011;41154;45.394;5.734;2023-04-24T09:24:14;1.50;;;1.00;;
55288;SDS011;41154;45.394;5.734;2023-04-24T09:26:48;3.33;;;1.20;;
55288;SDS011;41154;45.394;5.734;2023-04-24T09:29:20;1.83;;;1.13;;
55288;SDS011;41154;45.394;5.734;2023-04-24T09:31:46;1.75;;;1.00;;
55288;SDS011;41154;45.394;5.734;2023-04-24T09:34:12;1.23;;;1.00;;
55288;SDS011;41154;45.394;5.734;2023-04-24T09:36:38;2.72;;;1.02;;
55288;SDS011;41154;45.394;5.734;2023-04-24T09:39:08;2.47;;;0.98;;
55288;SDS011;41154;45.394;5.734;2023-04-24T09:41:47;2.20;;;0.98;;
55288;SDS011;41154;45.394;5.734;2023-04-24T09:44:18;2.05;;;1.08;;
55288;SDS011;41154;45.394;5.734;2023-04-24T09:46:50;4.22;;;1.10;;
55288;SDS011;41154;45.394;5.734;2023-04-24T09:49:24;1.40;;;0.90;;
55288;SDS011;41154;45.394;5.734;2023-04-24T09:52:07;1.88;;;1.20;;
55288;SDS011;41154;45.394;5.734;2023-04-24T09:54:35;1.85;;;1.20;;
55288;SDS011;41154;45.394;5.734;2023-04-24T09:57:02;0.95;;;0.90;;
55288;SDS011;41154;45.394;5.734;2023-04-24T09:59:28;1.92;;;1.30;;
55288;SDS011;41154;45.394;5.734;2023-04-24T10:01:55;2.03;;;1.30;;
55288;SDS011;41154;45.394;5.734;2023-04-24T10:04:22;1.98;;;1.00;;
55288;SDS011;41154;45.394;5.734;2023-04-24T10:06:50;3.03;;;1.25;;
55288;SDS011;41154;45.394;5.734;2023-04-24T10:09:18;2.25;;;0.90;;
55288;SDS011;41154;45.394;5.734;2023-04-24T10:11:45;2.42;;;1.20;;
55288;SDS011;41154;45.394;5.734;2023-04-24T10:14:13;1.60;;;1.00;;
55288;SDS011;41154;45.394;5.734;2023-04-24T10:16:40;1.88;;;1.10;;
55288;SDS011;41154;45.394;5.734;2023-04-24T10:19:07;1.10;;;1.00;;
55288;SDS011;41154;45.394;5.734;2023-04-24T10:21:34;2.00;;;1.20;;
55288;SDS011;41154;45.394;5.734;2023-04-24T10:24:02;3.40;;;1.05;;
55288;SDS011;41154;45.394;5.734;2023-04-24T10:26:30;5.22;;;1.88;;
55288;SDS011;41154;45.394;5.734;2023-04-24T10:28:57;1.75;;;1.13;;
55288;SDS011;41154;45.394;5.734;2023-04-24T10:31:24;3.20;;;1.10;;
55288;SDS011;41154;45.394;5.734;2023-04-24T10:33:51;1.00;;;0.90;;
55288;SDS011;41154;45.394;5.734;2023-04-24T10:36:19;1.48;;;0.88;;
55288;SDS011;41154;45.394;5.734;2023-04-24T10:38:48;1.20;;;0.90;;
55288;SDS011;41154;45.394;5.734;2023-04-24T10:41:16;1.50;;;0.70;;
55288;SDS011;41154;45.394;5.734;2023-04-24T10:43:48;2.03;;;0.80;;
55288;SDS011;41154;45.394;5.734;2023-04-24T10:46:32;1.45;;;0.90;;
55288;SDS011;41154;45.394;5.734;2023-04-24T10:48:57;1.35;;;0.70;;
55288;SDS011;41154;45.394;5.734;2023-04-24T10:51:24;1.17;;;0.70;;
55288;SDS011;41154;45.394;5.734;2023-04-24T10:59:43;1.65;;;0.82;;
55288;SDS011;41154;45.394;5.734;2023-04-24T11:02:09;0.55;;;0.50;;
55288;SDS011;41154;45.394;5.734;2023-04-24T11:04:35;1.80;;;0.77;;
55288;SDS011;41154;45.394;5.734;2023-04-24T11:07:04;0.95;;;0.68;;
55288;SDS011;41154;45.394;5.734;2023-04-24T11:09:31;1.42;;;0.77;;
55288;SDS011;41154;45.394;5.734;2023-04-24T11:12:04;2.25;;;0.70;;
55288;SDS011;41154;45.394;5.734;2023-04-24T11:17:37;4.30;;;1.02;;
55288;SDS011;41154;45.394;5.734;2023-04-24T11:20:05;2.03;;;0.80;;
55288;SDS011;41154;45.394;5.734;2023-04-24T11:22:35;1.33;;;0.80;;
55288;SDS011;41154;45.394;5.734;2023-04-24T11:25:02;0.90;;;0.60;;
55288;SDS011;41154;45.394;5.734;2023-04-24T11:27:31;3.72;;;1.02;;
55288;SDS011;41154;45.394;5.734;2023-04-24T11:30:03;2.45;;;0.82;;
55288;SDS011;41154;45.394;5.734;2023-04-24T11:37:37;1.23;;;0.80;;
55288;SDS011;41154;45.394;5.734;2023-04-24T11:40:05;1.25;;;0.70;;
55288;SDS011;41154;45.394;5.734;2023-04-24T11:42:35;0.95;;;0.80;;
55288;SDS011;41154;45.394;5.734;2023-04-24T11:47:35;0.73;;;0.55;;
55288;SDS011;41154;45.394;5.734;2023-04-24T11:50:01;1.02;;;0.90;;
55288;SDS011;41154;45.394;5.734;2023-04-24T11:52:29;1.75;;;0.82;;
55288;SDS011;41154;45.394;5.734;2023-04-24T11:54:55;0.75;;;0.63;;
55288;SDS011;41154;45.394;5.734;2023-04-24T11:57:24;1.05;;;0.80;;
55288;SDS011;41154;45.394;5.734;2023-04-24T11:59:59;1.15;;;0.80;;
55288;SDS011;41154;45.394;5.734;2023-04-24T12:02:37;0.90;;;0.80;;
55288;SDS011;41154;45.394;5.734;2023-04-24T12:05:04;2.45;;;0.73;;
55288;SDS011;41154;45.394;5.734;2023-04-24T12:07:30;6.90;;;0.73;;
55288;SDS011;41154;45.394;5.734;2023-04-24T12:10:10;1.88;;;0.77;;
55288;SDS011;41154;45.394;5.734;2023-04-24T12:12:36;2.55;;;0.90;;
55288;SDS011;41154;45.394;5.734;2023-04-24T12:15:06;2.55;;;0.95;;
55288;SDS011;41154;45.394;5.734;2023-04-24T12:17:34;1.58;;;0.60;;
55288;SDS011;41154;45.394;5.734;2023-04-24T12:20:05;1.90;;;0.80;;
55288;SDS011;41154;45.394;5.734;2023-04-24T12:25:25;1.65;;;0.68;;
55288;SDS011;41154;45.394;5.734;2023-04-24T12:27:55;0.90;;;0.50;;
55288;SDS011;41154;45.394;5.734;2023-04-24T12:30:33;1.05;;;0.82;;
55288;SDS011;41154;45.394;5.734;2023-04-24T12:33:01;2.20;;;0.77;;
55288;SDS011;41154;45.394;5.734;2023-04-24T12:35:29;0.90;;;0.60;;
55288;SDS011;41154;45.394;5.734;2023-04-24T12:38:09;0.70;;;0.50;;
55288;SDS011;41154;45.394;5.734;2023-04-24T12:40:38;2.97;;;0.75;;
55288;SDS011;41154;45.394;5.734;2023-04-24T12:43:25;0.90;;;0.60;;
55288;SDS011;41154;45.394;5.734;2023-04-24T12:45:49;1.50;;;0.70;;
55288;SDS011;41154;45.394;5.734;2023-04-24T12:48:15;1.65;;;0.82;;
55288;SDS011;41154;45.394;5.734;2023-04-24T12:50:42;1.23;;;0.70;;
55288;SDS011;41154;45.394;5.734;2023-04-24T12:53:09;1.75;;;0.70;;
55288;SDS011;41154;45.394;5.734;2023-04-24T12:55:35;0.60;;;0.50;;
55288;SDS011;41154;45.394;5.734;2023-04-24T12:58:02;1.23;;;0.77;;
55288;SDS011;41154;45.394;5.734;2023-04-24T13:00:28;0.75;;;0.50;;
55288;SDS011;41154;45.394;5.734;2023-04-24T13:02:54;1.77;;;0.70;;
55288;SDS011;41154;45.394;5.734;2023-04-24T13:05:20;1.00;;;0.60;;
55288;SDS011;41154;45.394;5.734;2023-04-24T13:07:46;2.22;;;0.70;;
55288;SDS011;41154;45.394;5.734;2023-04-24T13:10:12;1.95;;;0.90;;
55288;SDS011;41154;45.394;5.734;2023-04-24T13:12:38;1.95;;;0.98;;
55288;SDS011;41154;45.394;5.734;2023-04-24T13:15:06;2.35;;;0.60;;
55288;SDS011;41154;45.394;5.734;2023-04-24T13:17:32;1.65;;;1.17;;
55288;SDS011;41154;45.394;5.734;2023-04-24T13:19:58;0.88;;;0.70;;
55288;SDS011;41154;45.394;5.734;2023-04-24T13:22:24;0.70;;;0.63;;
55288;SDS011;41154;45.394;5.734;2023-04-24T13:24:51;0.98;;;0.50;;
55288;SDS011;41154;45.394;5.734;2023-04-24T13:27:16;0.90;;;0.70;;
55288;SDS011;41154;45.394;5.734;2023-04-24T13:29:43;0.70;;;0.63;;
55288;SDS011;41154;45.394;5.734;2023-04-24T13:32:09;0.88;;;0.52;;
55288;SDS011;41154;45.394;5.734;2023-04-24T13:34:35;0.75;;;0.60;;
55288;SDS011;41154;45.394;5.734;2023-04-24T13:37:03;1.60;;;0.65;;
55288;SDS011;41154;45.394;5.734;2023-04-24T13:39:29;1.15;;;0.52;;
55288;SDS011;41154;45.394;5.734;2023-04-24T13:41:55;0.80;;;0.65;;
55288;SDS011;41154;45.394;5.734;2023-04-24T13:44:21;2.53;;;0.82;;
55288;SDS011;41154;45.394;5.734;2023-04-24T13:46:48;0.90;;;0.50;;
55288;SDS011;41154;45.394;5.734;2023-04-24T13:49:17;1.92;;;0.70;;
55288;SDS011;41154;45.394;5.734;2023-04-24T13:51:43;1.15;;;0.85;;
55288;SDS011;41154;45.394;5.734;2023-04-24T13:54:09;2.00;;;0.60;;
55288;SDS011;41154;45.394;5.734;2023-04-24T13:56:35;1.48;;;0.70;;
55288;SDS011;41154;45.394;5.734;2023-04-24T13:59:00;0.80;;;0.60;;
55288;SDS011;41154;45.394;5.734;2023-04-24T14:01:26;1.17;;;0.52;;
55288;SDS011;41154;45.394;5.734;2023-04-24T14:03:52;1.67;;;0.73;;
55288;SDS011;41154;45.394;5.734;2023-04-24T14:06:19;1.05;;;0.85;;
55288;SDS011;41154;45.394;5.734;2023-04-24T14:08:46;1.27;;;0.75;;
55288;SDS011;41154;45.394;5.734;2023-04-24T14:11:12;2.85;;;0.73;;
55288;SDS011;41154;45.394;5.734;2023-04-24T14:13:38;0.88;;;0.70;;
55288;SDS011;41154;45.394;5.734;2023-04-24T14:16:06;1.77;;;0.80;;
55288;SDS011;41154;45.394;5.734;2023-04-24T14:18:32;0.95;;;0.70;;
55288;SDS011;41154;45.394;5.734;2023-04-24T14:20:59;0.50;;;0.50;;
55288;SDS011;41154;45.394;5.734;2023-04-24T14:23:26;2.58;;;1.38;;
55288;SDS011;41154;45.394;5.734;2023-04-24T14:25:52;1.45;;;1.02;;
55288;SDS011;41154;45.394;5.734;2023-04-24T14:28:20;1.40;;;0.90;;
55288;SDS011;41154;45.394;5.734;2023-04-24T14:30:47;2.03;;;0.60;;
55288;SDS011;41154;45.394;5.734;2023-04-24T14:33:13;1.25;;;0.73;;
55288;SDS011;41154;45.394;5.734;2023-04-24T14:35:39;0.68;;;0.60;;
55288;SDS011;41154;45.394;5.734;2023-04-24T14:38:07;1.23;;;0.70;;
55288;SDS011;41154;45.394;5.734;2023-04-24T14:40:32;0.80;;;0.80;;
55288;SDS011;41154;45.394;5.734;2023-04-24T14:42:58;2.28;;;0.90;;
55288;SDS011;41154;45.394;5.734;2023-04-24T14:45:24;0.90;;;0.70;;
55288;SDS011;41154;45.394;5.734;2023-04-24T14:47:51;1.63;;;0.80;;
55288;SDS011;41154;45.394;5.734;2023-04-24T14:50:17;1.30;;;0.90;;
55288;SDS011;41154;45.394;5.734;2023-04-24T14:52:42;6.30;;;1.17;;
55288;SDS011;41154;45.394;5.734;2023-04-24T14:55:09;2.38;;;0.90;;
55288;SDS011;41154;45.394;5.734;2023-04-24T14:57:34;1.13;;;0.90;;
55288;SDS011;41154;45.394;5.734;2023-04-24T15:00:01;1.10;;;0.80;;
55288;SDS011;41154;45.394;5.734;2023-04-24T15:02:33;0.75;;;0.70;;
55288;SDS011;41154;45.394;5.734;2023-04-24T15:05:02;0.90;;;0.70;;
55288;SDS011;41154;45.394;5.734;2023-04-24T15:07:28;1.88;;;0.65;;
55288;SDS011;41154;45.394;5.734;2023-04-24T15:09:54;1.23;;;0.80;;
55288;SDS011;41154;45.394;5.734;2023-04-24T15:12:19;1.92;;;0.70;;